createdAt,value
2024-03-05T00:00:28.316Z,63.40
2024-03-05T00:02:54.888Z,64.10
2024-03-05T00:05:21.523Z,63.53
2024-03-05T00:07:48.461Z,61.60
2024-03-05T00:10:15.137Z,67.30
2024-03-05T00:12:41.809Z,66.83
2024-03-05T00:15:08.585Z,59.53
2024-03-05T00:17:35.184Z,67.47
2024-03-05T00:20:02.210Z,61.70
2024-03-05T00:22:29.470Z,68.10
2024-03-05T00:24:56.164Z,63.10
2024-03-05T00:27:22.779Z,65.40
2024-03-05T00:29:49.514Z,65.50
2024-03-05T00:32:16.944Z,68.43
2024-03-05T00:34:43.534Z,64.20
2024-03-05T00:37:10.105Z,69.07
2024-03-05T00:39:36.739Z,62.33
2024-03-05T00:42:04.927Z,64.50
2024-03-05T00:44:31.536Z,63.57
2024-03-05T00:46:58.208Z,62.43
2024-03-05T00:49:24.977Z,67.07
2024-03-05T00:51:51.591Z,70.23
2024-03-05T00:54:18.200Z,62.00
2024-03-05T00:56:44.727Z,61.93
2024-03-05T00:59:12.732Z,64.70
2024-03-05T01:01:40.859Z,70.37
2024-03-05T01:04:09.302Z,62.20
2024-03-05T01:06:36.243Z,62.90
2024-03-05T01:09:03.842Z,71.20
2024-03-05T01:11:31.233Z,66.23
2024-03-05T01:13:58.817Z,62.57
2024-03-05T01:16:27.679Z,63.67
2024-03-05T01:18:56.735Z,66.77
2024-03-05T01:21:26.095Z,64.30
2024-03-05T01:23:52.667Z,70.87
2024-03-05T01:26:19.188Z,66.27
2024-03-05T01:28:45.848Z,65.83
2024-03-05T01:31:13.305Z,65.97
2024-03-05T01:33:41.709Z,66.93
2024-03-05T01:36:11.772Z,65.33
2024-03-05T01:38:38.438Z,64.30
2024-03-05T01:41:05.610Z,63.10
2024-03-05T01:43:32.310Z,66.80
2024-03-05T01:45:59.293Z,68.07
2024-03-05T01:48:26.800Z,64.17
2024-03-05T01:50:53.485Z,69.30
2024-03-05T01:53:20.275Z,67.90
2024-03-05T01:55:48.123Z,62.70
2024-03-05T01:58:18.732Z,64.47
2024-03-05T02:00:45.956Z,63.03
2024-03-05T02:03:12.583Z,61.73
2024-03-05T02:05:43.807Z,67.43
2024-03-05T02:08:10.369Z,67.87
2024-03-05T02:10:36.996Z,65.83
2024-03-05T02:13:03.583Z,65.20
2024-03-05T02:15:30.649Z,66.43
2024-03-05T02:17:57.204Z,59.07
2024-03-05T02:20:24.174Z,66.70
2024-03-05T02:22:50.790Z,62.40
2024-03-05T02:25:19.193Z,62.83
2024-03-05T02:27:50.774Z,61.67
2024-03-05T02:30:17.704Z,62.33
2024-03-05T02:32:44.590Z,61.97
2024-03-05T02:35:12.357Z,58.80
2024-03-05T02:37:39.838Z,59.80
2024-03-05T02:40:15.289Z,61.13
2024-03-05T02:42:41.937Z,55.37
2024-03-05T02:45:09.093Z,63.17
2024-03-05T02:47:43.276Z,60.80
2024-03-05T02:50:10.412Z,59.00
2024-03-05T02:52:37.490Z,56.87
2024-03-05T02:55:04.553Z,58.17
2024-03-05T02:57:31.101Z,60.17
2024-03-05T02:59:57.706Z,57.10
2024-03-05T03:02:24.259Z,60.40
2024-03-05T03:04:52.816Z,62.03
2024-03-05T03:07:19.892Z,56.03
2024-03-05T03:09:47.747Z,58.90
2024-03-05T03:12:14.471Z,55.70
2024-03-05T03:14:47.804Z,57.27
2024-03-05T03:17:14.413Z,58.53
2024-03-05T03:19:40.957Z,57.30
2024-03-05T03:22:07.602Z,59.27
2024-03-05T03:24:34.117Z,57.33
2024-03-05T03:27:01.206Z,56.47
2024-03-05T03:29:27.990Z,54.33
2024-03-05T03:31:57.632Z,54.23
2024-03-05T03:34:24.320Z,57.77
2024-03-05T03:36:50.898Z,55.63
2024-03-05T03:39:25.377Z,56.83
2024-03-05T03:41:53.073Z,56.80
2024-03-05T03:44:19.609Z,54.70
2024-03-05T03:46:46.159Z,58.30
2024-03-05T03:49:13.191Z,53.73
2024-03-05T03:51:39.917Z,57.10
2024-03-05T03:54:06.485Z,55.70
2024-03-05T03:56:35.409Z,54.10
2024-03-05T03:59:01.956Z,53.70
2024-03-05T04:01:31.264Z,57.10
2024-03-05T04:04:00.267Z,55.03
2024-03-05T04:06:26.842Z,53.83
2024-03-05T04:08:53.766Z,59.30
2024-03-05T04:11:20.381Z,51.40
2024-03-05T04:13:47.001Z,54.77
2024-03-05T04:16:13.807Z,53.07
2024-03-05T04:18:40.536Z,56.53
2024-03-05T04:21:07.153Z,52.00
2024-03-05T04:23:34.354Z,52.33
2024-03-05T04:26:08.510Z,54.57
2024-03-05T04:28:50.105Z,51.93
2024-03-05T04:31:18.713Z,51.80
2024-03-05T04:33:48.040Z,52.17
2024-03-05T04:36:17.898Z,52.40
2024-03-05T04:38:44.901Z,51.80
2024-03-05T04:41:12.177Z,54.40
2024-03-05T04:43:42.459Z,58.07
2024-03-05T04:46:09.515Z,55.73
2024-03-05T04:48:36.505Z,66.73
2024-03-05T04:51:03.185Z,158.83
2024-03-05T04:53:29.862Z,106.47
2024-03-05T04:55:57.753Z,128.37
2024-03-05T04:58:24.464Z,101.27
2024-03-05T05:00:51.159Z,84.73
2024-03-05T05:03:18.288Z,66.70
2024-03-05T05:05:45.223Z,62.07
2024-03-05T05:08:11.823Z,55.53
2024-03-05T05:10:38.510Z,61.07
2024-03-05T05:13:05.110Z,56.10
2024-03-05T05:15:31.691Z,57.87
2024-03-05T05:18:01.934Z,60.63
2024-03-05T05:20:28.827Z,58.67
2024-03-05T05:22:55.464Z,61.23
2024-03-05T05:25:23.402Z,55.67
2024-03-05T05:27:50.101Z,61.63
2024-03-05T05:30:24.874Z,58.83
2024-03-05T05:32:51.760Z,64.13
2024-03-05T05:35:18.584Z,59.43
2024-03-05T05:37:46.069Z,61.73
2024-03-05T05:40:16.120Z,64.30
2024-03-05T05:42:42.902Z,60.00
2024-03-05T05:45:13.429Z,90.30
2024-03-05T05:47:43.764Z,95.33
2024-03-05T05:50:19.969Z,102.40
2024-03-05T05:52:48.517Z,92.17
2024-03-05T05:55:18.170Z,86.83
2024-03-05T05:57:46.227Z,92.13
2024-03-05T06:00:23.934Z,84.13
2024-03-05T06:02:56.736Z,79.00
2024-03-05T06:05:24.666Z,82.57
2024-03-05T06:07:51.498Z,70.33
2024-03-05T06:10:21.068Z,61.53
2024-03-05T06:12:47.729Z,61.43
2024-03-05T06:15:14.571Z,56.17
2024-03-05T06:17:41.735Z,57.13
2024-03-05T06:20:11.792Z,56.13
2024-03-05T06:22:42.297Z,61.47
2024-03-05T06:25:09.701Z,54.13
2024-03-05T06:27:39.554Z,55.33
2024-03-05T06:30:21.156Z,52.07
2024-03-05T06:32:48.825Z,59.17
2024-03-05T06:35:19.119Z,56.77
2024-03-05T06:37:50.541Z,51.73
2024-03-05T06:40:20.866Z,61.13
2024-03-05T06:43:04.569Z,54.50
2024-03-05T06:45:31.619Z,58.90
2024-03-05T06:48:10.311Z,52.37
2024-03-05T06:50:39.672Z,57.53
2024-03-05T06:53:25.477Z,54.57
2024-03-05T06:56:11.684Z,55.23
2024-03-05T06:58:46.390Z,55.13
2024-03-05T07:01:15.386Z,56.63
2024-03-05T07:03:42.763Z,52.93
2024-03-05T07:06:11.537Z,79.47
2024-03-05T07:08:41.916Z,90.07
2024-03-05T07:11:11.301Z,90.33
2024-03-05T07:13:40.035Z,92.20
2024-03-05T07:16:09.000Z,60.70
2024-03-05T07:18:37.395Z,57.40
2024-03-05T07:21:04.974Z,52.50
2024-03-05T07:23:31.621Z,57.50
2024-03-05T07:25:58.307Z,92.23
2024-03-05T07:28:27.341Z,74.53
2024-03-05T07:30:54.548Z,69.80
2024-03-05T07:33:24.388Z,66.07
2024-03-05T07:35:50.956Z,66.77
2024-03-05T07:38:17.612Z,62.87
2024-03-05T07:40:46.808Z,55.00
2024-03-05T07:43:13.401Z,55.47
2024-03-05T07:45:40.193Z,52.07
2024-03-05T07:48:07.147Z,53.77
2024-03-05T07:50:34.214Z,49.67
2024-03-05T07:53:00.970Z,54.57
2024-03-05T07:55:32.092Z,53.63
2024-03-05T07:58:02.639Z,48.07
2024-03-05T08:00:29.362Z,53.90
2024-03-05T08:02:56.017Z,52.23
2024-03-05T08:05:23.554Z,53.80
2024-03-05T08:07:53.065Z,51.50
2024-03-05T08:10:20.145Z,50.17
2024-03-05T08:12:50.507Z,48.50
2024-03-05T08:15:17.706Z,47.53
2024-03-05T08:17:48.264Z,50.43
2024-03-05T08:20:27.947Z,48.53
2024-03-05T08:22:55.276Z,51.60
2024-03-05T08:25:23.093Z,51.20
2024-03-05T08:27:59.244Z,49.10
2024-03-05T08:30:32.967Z,48.43
2024-03-05T08:33:01.667Z,49.93
2024-03-05T08:35:31.071Z,51.83
2024-03-05T08:38:01.197Z,51.13
2024-03-05T08:40:29.384Z,54.17
2024-03-05T08:42:57.131Z,51.93
2024-03-05T08:45:25.184Z,52.27
2024-03-05T08:47:52.994Z,51.53
2024-03-05T08:50:20.111Z,51.70
2024-03-05T08:52:46.823Z,49.63
2024-03-05T08:55:15.389Z,56.27
2024-03-05T08:57:42.803Z,52.70
2024-03-05T09:00:17.474Z,48.20
2024-03-05T09:02:54.604Z,57.70
2024-03-05T09:05:21.230Z,53.73
2024-03-05T09:07:47.968Z,58.33
2024-03-05T09:10:16.441Z,49.97
2024-03-05T09:12:43.077Z,62.07
2024-03-05T09:15:10.166Z,52.13
2024-03-05T09:17:37.065Z,55.50
2024-03-05T09:20:16.419Z,54.97
2024-03-05T09:22:46.199Z,55.17
2024-03-05T09:25:13.970Z,57.70
2024-03-05T09:27:42.205Z,53.63
2024-03-05T09:30:09.656Z,52.53
2024-03-05T09:32:36.677Z,56.50
2024-03-05T09:35:03.629Z,53.93
2024-03-05T09:37:30.292Z,59.57
2024-03-05T09:39:56.855Z,52.47
2024-03-05T09:42:23.448Z,61.23
2024-03-05T09:44:51.577Z,55.10
2024-03-05T09:47:18.512Z,53.57
2024-03-05T09:49:45.289Z,54.67
2024-03-05T09:52:12.434Z,61.07
2024-03-05T09:54:40.276Z,55.13
2024-03-05T09:57:07.503Z,58.20
2024-03-05T09:59:39.013Z,64.30
2024-03-05T10:02:06.205Z,54.50
2024-03-05T10:04:35.562Z,55.17
2024-03-05T10:07:04.772Z,61.47
2024-03-05T10:09:31.669Z,47.30
2024-03-05T10:11:58.350Z,66.70
2024-03-05T10:14:25.706Z,52.23
2024-03-05T10:17:00.583Z,49.30
2024-03-05T10:19:28.084Z,55.83
2024-03-05T10:21:54.616Z,57.33
2024-03-05T10:24:32.957Z,49.77
2024-03-05T10:26:59.645Z,59.10
2024-03-05T10:29:34.016Z,61.97
2024-03-05T10:32:04.404Z,51.07
2024-03-05T10:34:31.095Z,45.67
2024-03-05T10:37:08.212Z,44.67
2024-03-05T10:39:35.300Z,47.80
2024-03-05T10:42:04.484Z,48.27
2024-03-05T10:44:32.079Z,47.10
2024-03-05T10:46:58.858Z,43.17
2024-03-05T10:49:26.805Z,45.33
2024-03-05T10:51:55.035Z,45.07
2024-03-05T10:54:22.199Z,44.80
2024-03-05T10:56:51.093Z,46.67
2024-03-05T10:59:17.846Z,40.43
2024-03-05T11:01:46.167Z,48.17
2024-03-05T11:04:14.503Z,44.73
2024-03-05T11:06:41.877Z,46.87
2024-03-05T11:09:09.611Z,42.10
2024-03-05T11:11:37.186Z,36.70
2024-03-05T11:14:04.578Z,40.80
2024-03-05T11:16:37.547Z,42.03
2024-03-05T11:19:05.621Z,39.33
2024-03-05T11:21:35.684Z,40.33
2024-03-05T11:24:03.852Z,41.37
2024-03-05T11:26:30.657Z,40.07
2024-03-05T11:29:02.446Z,39.53
2024-03-05T11:31:29.421Z,37.47
2024-03-05T11:34:13.520Z,39.70
2024-03-05T11:36:40.579Z,38.90
2024-03-05T11:39:08.477Z,37.17
2024-03-05T11:41:38.863Z,36.87
2024-03-05T11:44:05.801Z,40.17
2024-03-05T11:46:48.832Z,35.37
2024-03-05T11:49:16.238Z,37.87
2024-03-05T11:51:43.757Z,32.30
2024-03-05T11:54:10.701Z,35.70
2024-03-05T11:56:37.706Z,34.33
2024-03-05T11:59:04.428Z,30.23
2024-03-05T12:01:31.656Z,31.70
2024-03-05T12:04:04.918Z,35.90
2024-03-05T12:06:32.028Z,32.03
2024-03-05T12:09:11.239Z,30.43
2024-03-05T12:11:38.075Z,32.67
2024-03-05T12:14:08.629Z,31.97
2024-03-05T12:16:35.192Z,27.93
2024-03-05T12:19:01.801Z,28.80
2024-03-05T12:21:30.459Z,25.00
2024-03-05T12:24:00.583Z,24.47
2024-03-05T12:26:27.494Z,25.03
2024-03-05T12:28:54.322Z,23.63
2024-03-05T12:31:23.573Z,22.50
2024-03-05T12:33:50.238Z,24.73
2024-03-05T12:36:17.062Z,59.90
2024-03-05T12:38:43.820Z,30.57
2024-03-05T12:41:11.031Z,28.53
2024-03-05T12:43:37.799Z,23.33
2024-03-05T12:46:05.142Z,27.37
2024-03-05T12:48:36.736Z,23.63
2024-03-05T12:51:04.686Z,26.47
2024-03-05T12:53:31.682Z,25.60
2024-03-05T12:56:02.810Z,25.10
2024-03-05T12:58:43.456Z,26.20
2024-03-05T13:01:16.738Z,29.03
2024-03-05T13:03:44.719Z,27.17
2024-03-05T13:06:12.551Z,25.17
2024-03-05T13:08:39.862Z,23.63
2024-03-05T13:11:06.489Z,36.07
2024-03-05T13:13:33.305Z,34.40
2024-03-05T13:15:59.943Z,30.53
2024-03-05T13:18:26.481Z,20.73
2024-03-05T13:20:55.853Z,85.63
2024-03-05T13:23:23.557Z,34.43
2024-03-05T13:25:50.207Z,21.23
2024-03-05T13:28:17.129Z,22.87
2024-03-05T13:30:43.805Z,21.60
2024-03-05T13:33:10.444Z,20.17
2024-03-05T13:35:37.035Z,20.13
2024-03-05T13:38:06.027Z,56.70
2024-03-05T13:40:34.369Z,18.47
2024-03-05T13:43:01.882Z,15.83
2024-03-05T13:45:28.921Z,16.10
2024-03-05T13:47:55.798Z,16.13
2024-03-05T13:50:24.988Z,17.87
2024-03-05T13:52:51.637Z,17.27
2024-03-05T13:55:18.353Z,15.07
2024-03-05T13:57:45.768Z,14.27
2024-03-05T14:00:21.267Z,15.03
2024-03-05T14:02:48.276Z,11.83
2024-03-05T14:05:14.958Z,13.80
2024-03-05T14:07:41.665Z,12.87
2024-03-05T14:10:11.671Z,13.63
2024-03-05T14:12:44.009Z,44.43
2024-03-05T14:15:22.056Z,41.57
2024-03-05T14:17:49.641Z,16.83
2024-03-05T14:20:21.374Z,8.60
2024-03-05T14:22:48.280Z,10.33
2024-03-05T14:25:15.040Z,9.03
2024-03-05T14:27:42.318Z,9.63
2024-03-05T14:30:15.113Z,10.03
2024-03-05T14:32:44.282Z,11.77
2024-03-05T14:35:11.112Z,11.37
2024-03-05T14:37:38.372Z,10.43
2024-03-05T14:40:11.529Z,9.93
2024-03-05T14:42:38.870Z,9.17
2024-03-05T14:45:06.563Z,11.80
2024-03-05T14:47:33.144Z,10.93
2024-03-05T14:49:59.925Z,15.77
2024-03-05T14:52:26.897Z,10.20
2024-03-05T14:54:54.035Z,9.20
2024-03-05T14:57:20.640Z,25.60
2024-03-05T14:59:47.189Z,15.90
2024-03-05T15:02:13.802Z,11.20
2024-03-05T15:04:42.950Z,11.50
2024-03-05T15:07:10.666Z,11.00
2024-03-05T15:09:37.593Z,9.67
2024-03-05T15:12:05.233Z,9.77
2024-03-05T15:14:31.914Z,7.83
2024-03-05T15:17:00.329Z,7.37
2024-03-05T15:19:27.073Z,7.23
2024-03-05T15:21:53.644Z,5.10
2024-03-05T15:24:20.186Z,9.33
2024-03-05T15:26:58.141Z,5.93
2024-03-05T15:29:28.455Z,9.47
2024-03-05T15:31:55.122Z,6.33
2024-03-05T15:34:21.778Z,6.23
2024-03-05T15:36:48.436Z,4.57
2024-03-05T15:39:16.224Z,4.33
2024-03-05T15:41:43.093Z,6.47
2024-03-05T15:44:10.318Z,4.90
2024-03-05T15:46:39.278Z,4.83
2024-03-05T15:49:06.035Z,5.73
2024-03-05T15:51:32.576Z,5.60
2024-03-05T15:54:00.004Z,7.90
2024-03-05T15:56:36.191Z,4.13
2024-03-05T15:59:22.198Z,7.10
2024-03-05T16:01:48.841Z,4.93
2024-03-05T16:04:31.318Z,7.60
2024-03-05T16:07:02.899Z,6.37
2024-03-05T16:09:29.453Z,8.27
2024-03-05T16:11:56.109Z,10.93
2024-03-05T16:14:22.788Z,9.37
2024-03-05T16:16:49.317Z,6.10
2024-03-05T16:19:15.960Z,7.40
2024-03-05T16:21:42.848Z,9.80
2024-03-05T16:24:10.091Z,9.17
2024-03-05T16:26:36.672Z,10.27
2024-03-05T16:29:05.048Z,11.07
2024-03-05T16:31:31.698Z,9.13
2024-03-05T16:34:02.329Z,11.47
2024-03-05T16:36:28.888Z,10.37
2024-03-05T16:38:55.486Z,11.57
2024-03-05T16:41:22.407Z,23.13
2024-03-05T16:43:49.078Z,17.63
2024-03-05T16:46:15.643Z,10.77
2024-03-05T16:48:43.029Z,12.20
2024-03-05T16:51:09.654Z,9.43
2024-03-05T16:53:37.673Z,10.23
2024-03-05T16:56:05.779Z,11.87
2024-03-05T16:58:34.480Z,12.77
2024-03-05T17:01:07.130Z,14.73
2024-03-05T17:03:35.872Z,12.07
2024-03-05T17:06:06.631Z,9.67
2024-03-05T17:08:33.305Z,9.07
2024-03-05T17:11:02.301Z,9.77
2024-03-05T17:13:31.147Z,10.20
2024-03-05T17:16:00.706Z,11.77
2024-03-05T17:18:32.342Z,11.20
2024-03-05T17:20:59.582Z,10.43
2024-03-05T17:23:27.896Z,9.50
2024-03-05T17:25:57.401Z,8.20
2024-03-05T17:28:24.922Z,9.10
2024-03-05T17:30:51.518Z,9.27
2024-03-05T17:33:18.237Z,8.43
2024-03-05T17:35:44.975Z,6.67
2024-03-05T17:38:14.145Z,9.63
2024-03-05T17:40:41.609Z,8.13
2024-03-05T17:43:08.735Z,7.67
2024-03-05T17:45:35.439Z,7.57
2024-03-05T17:48:07.269Z,8.27
2024-03-05T17:50:34.622Z,6.60
2024-03-05T17:53:01.339Z,8.40
2024-03-05T17:55:28.975Z,16.13
2024-03-05T17:57:55.570Z,39.27
2024-03-05T18:00:29.001Z,36.40
2024-03-05T18:02:56.766Z,21.70
2024-03-05T18:05:28.027Z,16.83
2024-03-05T18:07:57.667Z,8.67
2024-03-05T18:10:26.496Z,8.50
2024-03-05T18:12:53.845Z,8.37
2024-03-05T18:15:23.038Z,9.53
2024-03-05T18:17:50.745Z,7.83
2024-03-05T18:20:21.375Z,10.30
2024-03-05T18:22:48.218Z,11.17
2024-03-05T18:25:23.921Z,9.30
2024-03-05T18:27:55.492Z,8.27
2024-03-05T18:30:36.935Z,8.03
2024-03-05T18:33:08.407Z,10.03
2024-03-05T18:35:36.101Z,12.97
2024-03-05T18:38:04.703Z,10.30
2024-03-05T18:40:34.285Z,9.43
2024-03-05T18:43:00.919Z,9.87
2024-03-05T18:45:31.313Z,9.93
2024-03-05T18:48:06.112Z,10.90
2024-03-05T18:50:37.080Z,8.23
2024-03-05T18:53:06.965Z,11.67
2024-03-05T18:55:37.700Z,11.07
2024-03-05T18:58:07.786Z,9.93
2024-03-05T19:00:34.825Z,10.30
2024-03-05T19:03:02.244Z,10.10
2024-03-05T19:05:28.894Z,9.07
2024-03-05T19:07:55.721Z,11.00
2024-03-05T19:10:22.577Z,15.57
2024-03-05T19:12:49.629Z,11.33
2024-03-05T19:15:18.835Z,13.77
2024-03-05T19:17:48.963Z,11.80
2024-03-05T19:20:16.104Z,11.83
2024-03-05T19:22:43.067Z,11.47
2024-03-05T19:25:12.682Z,12.77
2024-03-05T19:27:40.099Z,12.83
2024-03-05T19:30:11.700Z,13.17
2024-03-05T19:32:43.587Z,12.17
2024-03-05T19:35:11.847Z,12.87
2024-03-05T19:37:42.242Z,12.70
2024-03-05T19:40:09.652Z,14.47
2024-03-05T19:42:36.258Z,13.93
2024-03-05T19:45:03.993Z,14.93
2024-03-05T19:47:34.186Z,16.13
2024-03-05T19:50:06.806Z,14.17
2024-03-05T19:52:34.311Z,15.97
2024-03-05T19:55:01.089Z,14.37
2024-03-05T19:57:27.694Z,15.97
2024-03-05T19:59:55.907Z,14.63
2024-03-05T20:02:23.493Z,15.83
2024-03-05T20:04:50.081Z,14.03
2024-03-05T20:07:16.704Z,14.93
2024-03-05T20:09:43.765Z,14.97
2024-03-05T20:12:10.361Z,13.93
2024-03-05T20:14:37.217Z,14.27
2024-03-05T20:17:07.590Z,14.33
2024-03-05T20:19:37.176Z,13.33
2024-03-05T20:22:05.354Z,16.13
2024-03-05T20:24:34.450Z,16.80
2024-03-05T20:27:03.553Z,18.63
2024-03-05T20:29:31.205Z,16.03
2024-03-05T20:32:02.085Z,15.13
2024-03-05T20:34:28.867Z,14.00
2024-03-05T20:36:55.735Z,17.50
2024-03-05T20:39:22.350Z,18.00
2024-03-05T20:41:49.006Z,16.67
2024-03-05T20:44:16.105Z,17.13
2024-03-05T20:46:43.271Z,14.50
2024-03-05T20:49:15.545Z,15.77
2024-03-05T20:51:42.089Z,16.80
2024-03-05T20:54:08.998Z,16.03
2024-03-05T20:56:35.633Z,15.77
2024-03-05T20:59:02.389Z,17.97
2024-03-05T21:01:30.786Z,18.30
2024-03-05T21:03:57.627Z,16.73
2024-03-05T21:06:24.960Z,17.47
2024-03-05T21:08:51.628Z,16.13
2024-03-05T21:11:18.654Z,16.70
2024-03-05T21:13:45.635Z,21.17
2024-03-05T21:16:15.357Z,18.17
2024-03-05T21:18:42.009Z,17.53
2024-03-05T21:21:10.159Z,17.57
2024-03-05T21:23:36.716Z,21.20
2024-03-05T21:26:14.185Z,16.23
2024-03-05T21:28:52.362Z,18.10
2024-03-05T21:31:19.255Z,17.37
2024-03-05T21:33:45.875Z,16.63
2024-03-05T21:36:12.587Z,20.33
2024-03-05T21:38:39.178Z,16.37
2024-03-05T21:41:10.167Z,19.37
2024-03-05T21:43:36.921Z,18.73
2024-03-05T21:46:05.413Z,19.80
2024-03-05T21:48:32.041Z,18.67
2024-03-05T21:51:06.324Z,17.63
2024-03-05T21:53:36.910Z,17.20
2024-03-05T21:56:03.699Z,18.87
2024-03-05T21:58:30.437Z,17.67
2024-03-05T22:00:57.139Z,19.63
2024-03-05T22:03:23.716Z,16.10
2024-03-05T22:05:50.241Z,21.27
2024-03-05T22:08:16.921Z,18.90
2024-03-05T22:10:43.539Z,19.87
2024-03-05T22:13:10.144Z,20.07
2024-03-05T22:15:36.802Z,20.50
2024-03-05T22:18:05.285Z,18.87
2024-03-05T22:20:31.973Z,20.13
2024-03-05T22:23:00.764Z,18.77
2024-03-05T22:25:27.441Z,17.87
2024-03-05T22:27:54.035Z,18.50
2024-03-05T22:30:20.842Z,20.10
2024-03-05T22:32:47.630Z,19.00
2024-03-05T22:35:14.568Z,17.57
2024-03-05T22:37:41.455Z,22.13
2024-03-05T22:40:09.276Z,16.43
2024-03-05T22:42:35.822Z,17.37
2024-03-05T22:45:02.458Z,15.63
2024-03-05T22:47:29.089Z,18.40
2024-03-05T22:49:55.750Z,16.43
2024-03-05T22:52:22.324Z,19.47
2024-03-05T22:54:48.913Z,16.13
2024-03-05T22:57:15.476Z,16.57
2024-03-05T22:59:42.045Z,18.03
2024-03-05T23:02:08.655Z,16.77
2024-03-05T23:04:35.437Z,17.90
2024-03-05T23:07:02.068Z,13.83
2024-03-05T23:09:28.647Z,15.97
2024-03-05T23:11:55.237Z,16.50
2024-03-05T23:14:21.975Z,17.20
2024-03-05T23:16:50.053Z,15.37
2024-03-05T23:19:16.658Z,17.93
2024-03-05T23:21:43.218Z,19.23
2024-03-05T23:24:10.412Z,18.70
2024-03-05T23:26:37.146Z,18.30
2024-03-05T23:29:03.772Z,16.57
2024-03-05T23:31:31.118Z,18.47
2024-03-05T23:33:57.735Z,16.87
2024-03-05T23:36:24.278Z,17.60
2024-03-05T23:38:51.208Z,18.67
2024-03-05T23:41:28.428Z,20.80
2024-03-05T23:43:58.844Z,17.33
2024-03-05T23:46:25.474Z,18.40
2024-03-05T23:48:52.077Z,19.93
2024-03-05T23:51:18.860Z,18.53
2024-03-05T23:53:45.493Z,19.20
2024-03-05T23:56:12.401Z,21.03
2024-03-05T23:58:41.941Z,24.90
